< < Back
Terminal Aerodrome Forecast


Current Version              Previous Versions:   1  2  3  4  5  6  7  8  9  

Terminal Aerodrome Forecast

521
FTUS42 KMLB 240500
TAFDAB
TAF
KDAB 240520Z 2406/2506 VRB03KT P6SM FEW030 FEW200
     FM241400 23006KT P6SM SCT025 SCT250
     FM241800 16007KT P6SM SCT030 SCT250
     FM250000 VRB04KT P6SM FEW030 SCT250=



Latest METAR

721
SAUS80 KWBC 242000
MTRDAB
METAR KDAB 241953Z 09007KT 10SM SCT035TCU SCT140 32/24 A2998 RMK AO2
SLP153 TCU OHD SE W T03220239


USA.gov is the U.S. government's official web portal to all federal, state and local government web resources and services.